Time;durP1;ratioP1;P1;durP2;ratioP2;P2;SDS_P1;SDS_P2;PMS_P1;PMS_P2;Temp;Humidity;BMP_temperature;BMP_pressure;BME280_temperature;BME280_humidity;BME280_pressure;Samples;Min_cycle;Max_cycle;Signal;HPM_P1;HPM_P2
2021/06/07 00:02:20;;;;;;;153.25;65.63;;;14.50;99.90;;;;;;4975354;28;20055;-91
2021/06/07 00:04:50;;;;;;;131.23;62.28;;;14.50;99.90;;;;;;4991130;28;20185;-89
2021/06/07 00:07:19;;;;;;;149.65;63.85;;;14.50;99.90;;;;;;4990149;28;20082;-90
2021/06/07 00:09:46;;;;;;;141.55;62.67;;;14.50;99.90;;;;;;4991892;28;20081;-88
2021/06/07 00:12:16;;;;;;;156.30;67.10;;;14.50;99.90;;;;;;4974034;28;20589;-90
2021/06/07 00:14:46;;;;;;;167.45;65.97;;;14.40;99.90;;;;;;4991021;28;20082;-91
2021/06/07 00:17:13;;;;;;;160.45;66.60;;;14.50;99.90;;;;;;4991863;28;20050;-89
2021/06/07 00:19:41;;;;;;;172.75;68.63;;;14.50;99.90;;;;;;4974718;28;20051;-91
2021/06/07 00:22:10;;;;;;;173.52;67.18;;;14.50;99.90;;;;;;4979182;28;20085;-90
2021/06/07 00:24:37;;;;;;;145.43;63.60;;;14.50;99.90;;;;;;4961762;28;20117;-90
2021/06/07 00:27:05;;;;;;;167.95;65.65;;;14.50;99.90;;;;;;4974445;28;20050;-88
2021/06/07 00:29:33;;;;;;;165.52;67.15;;;14.40;99.90;;;;;;4990754;28;20050;-89
2021/06/07 00:32:00;;;;;;;139.38;62.47;;;14.40;99.90;;;;;;4974323;28;20047;-89
2021/06/07 00:34:28;;;;;;;159.65;65.68;;;14.40;99.90;;;;;;4985842;28;20054;-90
2021/06/07 00:36:55;;;;;;;159.55;66.68;;;14.50;99.90;;;;;;4983040;28;20523;-91
2021/06/07 00:39:23;;;;;;;166.95;65.03;;;14.40;99.90;;;;;;5006050;28;20050;-91
2021/06/07 00:41:59;;;;;;;173.32;67.63;;;14.40;99.90;;;;;;4990315;28;20050;-91
2021/06/07 00:44:26;;;;;;;183.88;69.43;;;14.40;99.90;;;;;;4992374;28;20484;-91
2021/06/07 00:46:53;;;;;;;170.02;68.55;;;14.40;99.90;;;;;;4967302;28;20081;-90
2021/06/07 00:49:24;;;;;;;172.57;69.45;;;14.40;99.90;;;;;;4960630;28;20059;-91
2021/06/07 00:51:54;;;;;;;180.35;69.75;;;14.40;99.90;;;;;;4990224;28;20058;-90
2021/06/07 00:54:21;;;;;;;155.10;65.78;;;14.40;99.90;;;;;;4964401;28;20043;-90
2021/06/07 00:56:48;;;;;;;189.27;70.72;;;14.40;99.90;;;;;;4962674;28;20116;-90
2021/06/07 00:59:16;;;;;;;177.07;68.78;;;14.30;99.90;;;;;;4995440;28;20132;-90
2021/06/07 01:01:48;;;;;;;175.75;67.47;;;14.30;99.90;;;;;;4979846;28;20125;-91
2021/06/07 01:04:15;;;;;;;180.93;70.05;;;14.40;99.90;;;;;;4967631;28;20134;-91
2021/06/07 01:06:42;;;;;;;184.40;68.40;;;14.40;99.90;;;;;;4990066;28;20038;-89
2021/06/07 01:09:11;;;;;;;191.77;70.50;;;14.40;99.90;;;;;;4996108;28;20129;-89
2021/06/07 01:11:38;;;;;;;175.18;69.97;;;14.40;99.90;;;;;;4978649;28;20047;-92
2021/06/07 01:14:06;;;;;;;176.80;69.28;;;14.30;99.90;;;;;;4985834;28;20049;-91
2021/06/07 01:16:42;;;;;;;186.80;69.55;;;14.30;99.90;;;;;;4989952;28;20114;-92
2021/06/07 01:19:18;;;;;;;188.38;68.22;;;14.40;99.90;;;;;;4990873;28;20051;-91
2021/06/07 01:21:47;;;;;;;171.10;66.15;;;14.40;99.90;;;;;;5014276;28;20046;-91
2021/06/07 01:24:17;;;;;;;176.10;67.63;;;14.40;99.90;;;;;;5005253;28;20110;-90
2021/06/07 01:26:48;;;;;;;198.93;69.60;;;14.30;99.90;;;;;;4994869;28;20131;-94
2021/06/07 01:29:21;;;;;;;166.80;66.97;;;14.30;99.90;;;;;;4983897;28;20078;-90
2021/06/07 01:31:48;;;;;;;178.60;67.30;;;14.30;99.90;;;;;;4983005;28;20427;-91
2021/06/07 01:34:15;;;;;;;181.20;67.38;;;14.30;99.90;;;;;;4978806;28;20050;-90
2021/06/07 01:36:42;;;;;;;187.80;67.47;;;14.30;99.90;;;;;;4974344;28;20082;-89
2021/06/07 01:39:13;;;;;;;178.43;66.53;;;14.30;99.90;;;;;;4975000;28;20062;-90
2021/06/07 01:41:40;;;;;;;214.30;70.03;;;14.30;99.90;;;;;;4974171;28;20492;-90
2021/06/07 01:44:07;;;;;;;194.68;69.82;;;14.20;99.90;;;;;;4956523;28;20082;-93
2021/06/07 01:46:41;;;;;;;205.45;70.70;;;14.20;99.90;;;;;;4981733;28;20094;-91
2021/06/07 01:49:11;;;;;;;202.80;70.57;;;14.20;99.90;;;;;;4995532;28;20389;-91
2021/06/07 01:51:38;;;;;;;204.55;69.85;;;14.20;99.90;;;;;;4957465;28;20129;-90
2021/06/07 01:54:06;;;;;;;201.68;70.20;;;14.20;99.90;;;;;;4974386;28;20442;-89
2021/06/07 01:56:35;;;;;;;207.93;71.10;;;14.20;99.90;;;;;;4971956;28;20046;-89
2021/06/07 01:59:03;;;;;;;208.35;70.38;;;14.20;99.90;;;;;;4958163;28;20146;-90
2021/06/07 02:01:30;;;;;;;187.90;68.05;;;14.20;99.90;;;;;;4974809;28;20047;-91
2021/06/07 02:03:57;;;;;;;194.77;68.85;;;14.10;99.90;;;;;;4957668;28;20141;-90
2021/06/07 02:06:25;;;;;;;209.30;71.65;;;14.20;99.90;;;;;;4956473;28;20453;-91
2021/06/07 02:08:54;;;;;;;211.57;70.28;;;14.20;99.90;;;;;;4957115;28;20094;-89
2021/06/07 02:11:27;;;;;;;238.27;72.13;;;14.20;99.90;;;;;;4973309;28;20501;-89
2021/06/07 02:13:57;;;;;;;229.60;73.22;;;14.20;99.90;;;;;;4962403;28;20074;-91
2021/06/07 02:16:27;;;;;;;191.70;70.68;;;14.10;99.90;;;;;;4944923;28;20350;-92
2021/06/07 02:18:55;;;;;;;221.25;70.75;;;14.10;99.90;;;;;;4969734;28;20196;-89
2021/06/07 02:21:27;;;;;;;232.35;72.05;;;14.20;99.90;;;;;;4975055;28;20065;-91
2021/06/07 02:23:56;;;;;;;236.68;73.75;;;14.10;99.90;;;;;;4973554;28;20131;-90
2021/06/07 02:26:25;;;;;;;221.57;72.55;;;14.20;99.90;;;;;;4956492;28;20544;-91
2021/06/07 02:29:07;;;;;;;212.27;71.70;;;14.10;99.90;;;;;;4974101;28;20047;-89
2021/06/07 02:31:35;;;;;;;237.60;74.20;;;14.10;99.90;;;;;;4973059;28;20441;-91
2021/06/07 02:34:06;;;;;;;228.93;73.18;;;14.10;99.90;;;;;;4975148;28;20057;-92
2021/06/07 02:36:36;;;;;;;212.65;71.38;;;14.10;99.90;;;;;;4985729;28;20145;-90
2021/06/07 02:39:13;;;;;;;240.48;73.70;;;14.10;99.90;;;;;;4988724;28;20129;-91
2021/06/07 02:41:44;;;;;;;247.73;71.15;;;14.10;99.90;;;;;;4985341;28;20062;-91
2021/06/07 02:44:12;;;;;;;220.35;69.43;;;14.10;99.90;;;;;;4988156;28;20452;-90
2021/06/07 02:46:39;;;;;;;245.85;75.00;;;14.10;99.90;;;;;;4972001;28;20059;-94
2021/06/07 02:49:06;;;;;;;238.50;74.80;;;14.10;99.90;;;;;;4992307;28;20413;-91
2021/06/07 02:51:33;;;;;;;219.63;72.00;;;14.10;99.90;;;;;;4972334;28;20720;-91
2021/06/07 02:54:00;;;;;;;214.52;70.95;;;14.10;99.90;;;;;;4968062;28;20059;-89
2021/06/07 02:56:27;;;;;;;226.80;72.10;;;14.10;99.90;;;;;;4970711;28;20125;-89
2021/06/07 02:58:54;;;;;;;226.07;73.15;;;14.10;99.90;;;;;;4973845;28;20073;-90
2021/06/07 03:01:22;;;;;;;240.40;70.45;;;14.10;99.90;;;;;;4974991;28;20451;-92
2021/06/07 03:04:03;;;;;;;234.40;73.50;;;14.10;99.90;;;;;;4989815;28;20042;-89
2021/06/07 03:06:53;;;;;;;226.52;71.68;;;14.10;99.90;;;;;;4975389;28;20361;-91
2021/06/07 03:09:24;;;;;;;239.95;72.60;;;14.10;99.90;;;;;;4971147;28;20062;-91
2021/06/07 03:11:55;;;;;;;226.55;72.88;;;14.10;99.90;;;;;;4943371;28;20134;-91
2021/06/07 03:14:43;;;;;;;;;;;;;;;;;;;;;
2021/06/07 03:17:19;;;;;;;238.15;73.32;;;14.10;99.90;;;;;;4970745;28;20051;-91
2021/06/07 03:20:17;;;;;;;224.68;72.38;;;14.10;99.90;;;;;;4942862;28;20067;-90
2021/06/07 03:22:45;;;;;;;225.38;70.75;;;14.10;99.90;;;;;;4971749;28;20080;-89
2021/06/07 03:25:15;;;;;;;238.57;73.63;;;14.00;99.90;;;;;;4972019;28;20082;-91
2021/06/07 03:27:42;;;;;;;235.73;72.32;;;14.10;99.90;;;;;;4954445;28;20058;-91
2021/06/07 03:30:11;;;;;;;244.82;75.18;;;14.10;99.90;;;;;;4957887;28;20078;-96
2021/06/07 03:32:44;;;;;;;245.20;73.05;;;14.10;99.90;;;;;;4956241;28;20054;-92
2021/06/07 03:35:17;;;;;;;253.65;75.55;;;14.10;99.90;;;;;;4969484;28;20142;-91
2021/06/07 03:37:48;;;;;;;267.58;77.15;;;14.10;99.90;;;;;;4990778;28;20129;-90
2021/06/07 03:40:28;;;;;;;243.57;72.70;;;14.10;99.90;;;;;;4974947;28;20505;-90
2021/06/07 03:43:03;;;;;;;246.45;73.78;;;14.10;99.90;;;;;;4991750;28;20053;-92
2021/06/07 03:45:46;;;;;;;250.10;73.05;;;14.10;99.90;;;;;;4988002;28;20057;-91
2021/06/07 03:48:25;;;;;;;263.90;75.30;;;14.10;99.90;;;;;;4976729;28;20059;-90
2021/06/07 03:50:57;;;;;;;257.40;77.50;;;14.10;99.90;;;;;;4974989;28;20089;-90
2021/06/07 03:53:45;;;;;;;237.32;72.50;;;14.10;99.90;;;;;;4970740;28;20051;-91
2021/06/07 03:56:20;;;;;;;277.98;78.00;;;14.10;99.90;;;;;;4959186;28;20087;-91
2021/06/07 03:58:50;;;;;;;248.63;75.35;;;14.10;99.90;;;;;;4976240;28;20137;-91
2021/06/07 04:01:29;;;;;;;263.17;76.78;;;14.10;99.90;;;;;;4964488;28;20360;-90
2021/06/07 04:03:56;;;;;;;258.20;75.53;;;14.10;99.90;;;;;;4971184;28;20054;-89
2021/06/07 04:06:24;;;;;;;232.88;72.55;;;14.10;99.90;;;;;;4997798;28;20069;-91
2021/06/07 04:09:03;;;;;;;258.10;74.53;;;14.10;99.90;;;;;;4983704;28;20141;-93
2021/06/07 04:11:51;;;;;;;258.60;75.40;;;14.00;99.90;;;;;;4993214;28;20046;-90
2021/06/07 04:14:28;;;;;;;254.30;75.05;;;14.10;99.90;;;;;;4962498;28;20087;-89
2021/06/07 04:16:55;;;;;;;266.85;75.55;;;14.10;99.90;;;;;;4990832;28;20101;-90
2021/06/07 04:19:26;;;;;;;227.63;69.50;;;14.00;99.90;;;;;;4971378;28;20057;-92
2021/06/07 04:21:58;;;;;;;248.27;74.60;;;14.10;99.90;;;;;;4974609;28;20073;-90
2021/06/07 04:24:35;;;;;;;234.55;72.50;;;14.10;99.90;;;;;;4965347;28;20102;-91
2021/06/07 04:27:02;;;;;;;247.00;71.93;;;14.10;99.90;;;;;;4968229;28;20046;-92
2021/06/07 04:29:34;;;;;;;238.45;71.43;;;14.10;99.90;;;;;;4970593;28;20462;-90
2021/06/07 04:32:01;;;;;;;231.60;73.15;;;14.00;99.90;;;;;;4954711;28;20444;-89
2021/06/07 04:34:28;;;;;;;228.48;69.85;;;14.10;99.90;;;;;;4992856;28;20057;-90
2021/06/07 04:36:59;;;;;;;234.88;70.15;;;14.10;99.90;;;;;;4997875;28;20122;-87
2021/06/07 04:39:51;;;;;;;203.77;67.97;;;14.20;99.90;;;;;;4970162;28;20126;-90
2021/06/07 04:43:12;;;;;;;215.07;65.45;;;14.20;99.90;;;;;;4996782;28;20046;-91
2021/06/07 04:45:46;;;;;;;198.73;64.95;;;14.20;99.90;;;;;;4989391;28;20545;-91
2021/06/07 04:48:39;;;;;;;;;;;14.20;99.90;;;;;;5002576;28;20052;-91
2021/06/07 04:51:33;;;;;;;193.90;61.17;;;14.30;99.90;;;;;;4987898;28;19921;-93
2021/06/07 04:54:09;;;;;;;162.77;58.67;;;14.30;99.90;;;;;;4984367;28;20137;-92
2021/06/07 04:57:04;;;;;;;169.60;58.47;;;14.30;99.90;;;;;;4981228;28;20393;-94
2021/06/07 04:59:35;;;;;;;172.32;59.38;;;14.30;99.90;;;;;;4968309;28;20054;-94
2021/06/07 05:02:04;;;;;;;150.68;56.20;;;14.30;99.90;;;;;;4979917;28;20439;-93
2021/06/07 05:04:41;;;;;;;196.15;57.67;;;14.30;99.90;;;;;;4981014;28;20065;-93
2021/06/07 05:07:09;;;;;;;137.73;55.92;;;14.30;99.90;;;;;;4967603;28;20439;-91
2021/06/07 05:09:45;;;;;;;169.35;54.97;;;14.40;99.90;;;;;;4995757;28;20050;-92
2021/06/07 05:12:16;;;;;;;127.13;50.63;;;14.30;99.90;;;;;;4996191;28;20046;-91
2021/06/07 05:14:54;;;;;;;143.05;52.45;;;14.40;99.90;;;;;;4980987;28;20042;-93
2021/06/07 05:17:24;;;;;;;132.85;50.92;;;14.40;99.90;;;;;;4973044;28;20368;-93
2021/06/07 05:20:12;;;;;;;98.70;43.75;;;14.40;99.90;;;;;;4983175;28;20102;-91
2021/06/07 05:22:48;;;;;;;97.07;43.78;;;14.50;99.90;;;;;;4995274;28;20050;-92
2021/06/07 05:25:20;;;;;;;100.20;42.92;;;14.50;99.90;;;;;;4978181;28;20108;-93
2021/06/07 05:27:48;;;;;;;102.10;43.42;;;14.50;99.90;;;;;;4995093;28;20137;-91
2021/06/07 05:30:21;;;;;;;100.88;41.97;;;14.50;99.90;;;;;;4958679;28;20054;-93
2021/06/07 05:32:48;;;;;;;92.10;40.58;;;14.50;99.90;;;;;;4988337;28;20046;-93
2021/06/07 05:35:18;;;;;;;88.80;40.78;;;14.50;99.90;;;;;;4984171;28;20042;-91
2021/06/07 05:37:46;;;;;;;86.35;40.13;;;14.50;99.90;;;;;;4981619;28;20133;-93
2021/06/07 05:40:15;;;;;;;85.97;39.83;;;14.50;99.90;;;;;;4962057;28;20065;-91
2021/06/07 05:42:42;;;;;;;86.80;39.55;;;14.50;99.90;;;;;;4993996;28;20124;-91
2021/06/07 05:45:12;;;;;;;82.68;37.20;;;14.50;99.90;;;;;;4956461;28;20114;-91
2021/06/07 05:47:40;;;;;;;77.68;36.17;;;14.50;99.90;;;;;;4977114;28;20113;-91
2021/06/07 05:50:36;;;;;;;;;;;;;;;;;;;;;
2021/06/07 05:53:11;;;;;;;81.57;35.22;;;14.40;99.90;;;;;;4999961;28;20035;-92
2021/06/07 05:55:49;;;;;;;85.80;33.90;;;14.40;99.90;;;;;;4986668;28;20047;-92
2021/06/07 05:58:20;;;;;;;71.90;35.17;;;14.50;99.90;;;;;;4993631;28;20046;-92
2021/06/07 06:00:50;;;;;;;73.88;34.97;;;14.50;99.90;;;;;;5003110;28;20061;-91
2021/06/07 06:03:19;;;;;;;67.97;32.93;;;14.50;99.90;;;;;;4997160;28;20435;-92
2021/06/07 06:05:47;;;;;;;67.03;34.35;;;14.60;99.90;;;;;;4995598;28;20483;-93
2021/06/07 06:08:14;;;;;;;74.72;35.13;;;14.60;99.90;;;;;;4992131;28;20081;-90
2021/06/07 06:10:42;;;;;;;64.63;33.75;;;14.60;99.90;;;;;;4994635;28;20046;-91
2021/06/07 06:13:29;;;;;;;62.63;32.08;;;14.60;99.90;;;;;;4981482;28;20433;-93
2021/06/07 06:15:56;;;;;;;68.32;34.05;;;14.70;99.90;;;;;;4971554;28;20077;-89
2021/06/07 06:18:24;;;;;;;68.72;32.85;;;14.60;99.90;;;;;;4969993;28;20074;-90
2021/06/07 06:20:51;;;;;;;62.55;32.15;;;14.70;99.90;;;;;;4972122;28;20050;-91
2021/06/07 06:23:19;;;;;;;67.50;31.00;;;14.70;99.90;;;;;;4974003;28;20058;-92
2021/06/07 06:25:49;;;;;;;54.20;29.02;;;14.70;99.90;;;;;;4999833;28;20055;-92
2021/06/07 06:28:16;;;;;;;58.58;30.23;;;14.70;99.90;;;;;;4976131;28;20086;-89
2021/06/07 06:30:43;;;;;;;52.28;28.25;;;14.80;99.90;;;;;;4960106;28;20460;-90
2021/06/07 06:33:26;;;;;;;50.90;27.88;;;14.80;99.90;;;;;;4977042;28;20109;-92
2021/06/07 06:36:05;;;;;;;61.13;29.23;;;14.80;99.90;;;;;;4993657;28;20065;-92
2021/06/07 06:38:36;;;;;;;51.78;28.42;;;14.80;99.90;;;;;;4979606;28;20655;-92
2021/06/07 06:41:14;;;;;;;48.65;26.52;;;14.90;99.90;;;;;;4998961;28;20081;-93
2021/06/07 06:43:41;;;;;;;44.78;25.90;;;14.90;99.90;;;;;;4971538;28;20478;-90
2021/06/07 06:46:08;;;;;;;47.83;26.10;;;14.90;99.90;;;;;;4973591;28;20078;-90
2021/06/07 06:48:40;;;;;;;46.83;28.05;;;14.90;99.90;;;;;;4989830;28;20065;-91
2021/06/07 06:51:09;;;;;;;53.40;28.13;;;14.80;99.90;;;;;;4995023;28;20046;-91
2021/06/07 06:53:37;;;;;;;47.42;27.65;;;14.80;99.90;;;;;;4964244;28;20063;-91
2021/06/07 06:56:04;;;;;;;50.47;27.58;;;14.80;99.90;;;;;;4977647;28;20054;-93
2021/06/07 06:58:34;;;;;;;49.80;27.65;;;14.80;99.90;;;;;;4993052;28;20054;-90
2021/06/07 07:01:04;;;;;;;47.10;25.83;;;14.80;99.90;;;;;;4992672;28;20117;-93
2021/06/07 07:03:31;;;;;;;49.20;27.08;;;14.90;99.90;;;;;;4977615;28;20125;-90
2021/06/07 07:06:16;;;;;;;53.70;28.50;;;14.90;99.90;;;;;;4993651;28;20084;-92
2021/06/07 07:08:43;;;;;;;59.75;30.95;;;14.80;99.90;;;;;;4975883;28;20375;-89
2021/06/07 07:11:11;;;;;;;49.80;29.27;;;14.80;99.90;;;;;;4974213;28;20132;-93
2021/06/07 07:13:39;;;;;;;57.10;29.90;;;14.80;99.90;;;;;;4974353;28;20381;-91
2021/06/07 07:16:08;;;;;;;59.38;29.45;;;14.90;99.90;;;;;;4958059;28;20097;-91
2021/06/07 07:18:35;;;;;;;56.10;28.83;;;14.90;99.90;;;;;;4974481;28;20046;-89
2021/06/07 07:21:02;;;;;;;50.65;28.25;;;15.00;99.90;;;;;;4983939;28;20053;-91
2021/06/07 07:23:29;;;;;;;53.28;27.05;;;15.10;99.90;;;;;;4976076;28;20491;-92
2021/06/07 07:25:58;;;;;;;52.25;27.33;;;15.20;99.90;;;;;;4982705;28;20384;-92
2021/06/07 07:28:42;;;;;;;44.75;26.25;;;15.30;99.90;;;;;;4971823;28;20474;-92
2021/06/07 07:31:09;;;;;;;47.85;26.90;;;15.30;99.90;;;;;;4982488;28;20050;-91
2021/06/07 07:33:38;;;;;;;47.03;27.10;;;15.30;99.90;;;;;;4974032;28;20058;-90
2021/06/07 07:36:14;;;;;;;45.28;26.45;;;15.30;99.90;;;;;;4964000;28;20054;-92
2021/06/07 07:38:42;;;;;;;42.88;25.98;;;15.40;99.90;;;;;;4973597;28;20055;-90
2021/06/07 07:41:17;;;;;;;39.20;24.85;;;15.40;99.90;;;;;;4985609;28;20039;-92
2021/06/07 07:43:44;;;;;;;48.00;25.88;;;15.40;99.90;;;;;;4990109;28;20101;-93
2021/06/07 07:46:12;;;;;;;40.58;24.42;;;15.50;99.90;;;;;;4991961;28;20050;-90
2021/06/07 07:48:42;;;;;;;47.53;24.20;;;15.50;99.90;;;;;;4981147;28;20050;-90
2021/06/07 07:51:09;;;;;;;39.92;22.70;;;15.50;99.90;;;;;;4974876;28;20054;-90
2021/06/07 07:53:36;;;;;;;38.33;24.25;;;15.50;99.90;;;;;;4973900;28;20479;-91
2021/06/07 07:56:07;;;;;;;37.97;23.48;;;15.50;99.90;;;;;;4990787;28;20085;-92
2021/06/07 07:58:36;;;;;;;38.22;23.58;;;15.60;99.90;;;;;;4990317;28;20042;-91
2021/06/07 08:01:04;;;;;;;34.88;22.23;;;15.70;99.90;;;;;;4967288;28;20106;-92
2021/06/07 08:03:31;;;;;;;39.55;24.05;;;15.70;99.90;;;;;;4988166;28;20157;-92
2021/06/07 08:06:00;;;;;;;34.45;21.23;;;15.80;99.90;;;;;;4989890;28;20435;-89
2021/06/07 08:08:27;;;;;;;34.03;21.90;;;15.90;99.90;;;;;;4990352;28;20084;-92
2021/06/07 08:10:56;;;;;;;36.63;22.65;;;16.00;99.90;;;;;;4973410;28;20042;-91
2021/06/07 08:13:25;;;;;;;29.75;20.33;;;15.90;99.90;;;;;;4999899;28;20093;-92
2021/06/07 08:16:02;;;;;;;33.38;21.05;;;16.00;99.90;;;;;;4965462;28;20047;-91
2021/06/07 08:18:39;;;;;;;36.28;22.83;;;16.00;99.90;;;;;;4991005;28;20483;-92
2021/06/07 08:21:08;;;;;;;32.60;21.63;;;15.90;99.90;;;;;;4986994;28;20042;-91
2021/06/07 08:24:11;;;;;;;32.72;21.60;;;15.80;99.90;;;;;;4983032;28;20637;-91
2021/06/07 08:30:27;;;;;;;33.28;20.80;;;15.90;99.90;;;;;;4891398;29;20127;-92
2021/06/07 08:33:44;;;;;;;33.22;22.50;;;15.90;99.90;;;;;;4905087;29;20148;-92
2021/06/07 08:36:26;;;;;;;29.17;19.85;;;16.00;99.90;;;;;;4991314;28;20070;-91
2021/06/07 08:38:58;;;;;;;28.90;19.95;;;16.00;99.90;;;;;;4982145;28;20042;-90
2021/06/07 08:41:35;;;;;;;29.70;18.27;;;16.00;99.90;;;;;;4974113;28;20046;-92
2021/06/07 08:44:22;;;;;;;28.48;19.35;;;16.10;99.90;;;;;;4985565;28;20064;-91
2021/06/07 08:47:02;;;;;;;22.73;15.88;;;16.20;99.90;;;;;;4991236;28;20199;-91
2021/06/07 08:49:34;;;;;;;21.77;15.45;;;16.30;99.90;;;;;;4975033;28;20066;-92
2021/06/07 08:52:03;;;;;;;18.58;13.45;;;16.50;99.90;;;;;;4973946;28;20153;-89
2021/06/07 08:54:36;;;;;;;18.55;13.27;;;16.50;99.90;;;;;;4974094;28;20185;-91
2021/06/07 08:57:06;;;;;;;17.50;13.40;;;16.60;99.90;;;;;;4990616;28;20082;-92
2021/06/07 08:59:44;;;;;;;15.48;13.00;;;16.60;99.90;;;;;;4974840;28;20444;-91
2021/06/07 09:02:13;;;;;;;17.10;12.48;;;16.70;99.90;;;;;;4959175;28;20497;-92
2021/06/07 09:04:54;;;;;;;13.55;10.45;;;16.90;99.90;;;;;;4965788;28;20050;-91
2021/06/07 09:07:24;;;;;;;14.38;10.40;;;17.20;99.90;;;;;;4992360;28;20078;-90
2021/06/07 09:10:38;;;;;;;11.77;10.35;;;17.20;99.90;;;;;;4981002;28;20046;-92
2021/06/07 09:13:20;;;;;;;;;;;;;;;;;;;;;
2021/06/07 09:15:48;;;;;;;12.75;10.02;;;17.50;99.90;;;;;;4998616;28;20073;-92
2021/06/07 09:18:35;;;;;;;13.95;10.32;;;17.40;99.90;;;;;;4990838;28;20054;-94
2021/06/07 09:21:18;;;;;;;12.05;9.93;;;17.20;99.90;;;;;;4989340;28;20054;-91
2021/06/07 09:23:55;;;;;;;;;;;17.10;99.90;;;;;;4986453;28;20065;-92
2021/06/07 09:26:28;;;;;;;11.63;9.82;;;16.90;99.90;;;;;;4981922;28;20040;-91
2021/06/07 09:28:57;;;;;;;12.60;10.43;;;16.90;99.90;;;;;;4994347;28;20133;-91
2021/06/07 09:31:33;;;;;;;13.03;10.83;;;16.80;99.90;;;;;;4982479;28;20137;-91
2021/06/07 09:37:17;;;;;;;15.32;11.65;;;17.00;99.90;;;;;;4988273;28;20050;-90
2021/06/07 09:40:07;;;;;;;14.45;11.50;;;17.10;99.90;;;;;;4994878;28;20062;-91
2021/06/07 09:42:57;;;;;;;15.05;11.75;;;17.20;99.90;;;;;;4986890;28;20059;-90
2021/06/07 09:46:09;;;;;;;14.57;11.88;;;17.30;99.90;;;;;;4997457;28;20053;-91
2021/06/07 09:48:46;;;;;;;12.63;10.65;;;17.40;99.90;;;;;;4993195;28;20126;-92
2021/06/07 09:54:19;;;;;;;11.90;10.05;;;17.50;99.90;;;;;;4982661;28;20038;-90
2021/06/07 09:57:21;;;;;;;;;;;;;;;;;;;;;
2021/06/07 10:00:59;;;;;;;12.00;10.63;;;17.50;99.90;;;;;;4988095;28;20587;-93
2021/06/07 10:04:15;;;;;;;;;;;;;;;;;;;;;
2021/06/07 10:07:56;;;;;;;;;;;;;;;;;;;;;
2021/06/07 10:15:40;;;;;;;;;;;;;;;;;;;;;
2021/06/07 10:18:38;;;;;;;10.77;9.02;;;17.60;99.90;;;;;;4929377;29;20059;-91
2021/06/07 10:21:19;;;;;;;13.82;9.63;;;17.60;99.90;;;;;;4957114;28;20367;-92
2021/06/07 10:23:50;;;;;;;11.85;9.23;;;17.50;99.90;;;;;;4979062;28;20050;-95
2021/06/07 10:26:45;;;;;;;9.73;8.73;;;17.50;99.90;;;;;;4994585;28;20125;-92
2021/06/07 10:30:19;;;;;;;;;;;;;;;;;;;;;
2021/06/07 10:33:56;;;;;;;10.93;8.55;;;17.40;99.90;;;;;;4801572;29;20390;-95
2021/06/07 10:36:28;;;;;;;12.48;9.45;;;17.40;99.90;;;;;;4799128;29;20054;-92
2021/06/07 10:39:18;;;;;;;11.00;9.90;;;17.30;99.90;;;;;;4833050;29;20080;-90
2021/06/07 10:42:09;;;;;;;13.60;11.85;;;17.20;99.90;;;;;;4818091;29;20055;-92
2021/06/07 10:45:46;;;;;;;;;;;;;;;;;;;;;
2021/06/07 10:48:53;;;;;;;;;;;;;;;;;;;;;
2021/06/07 10:53:01;;;;;;;;;;;;;;;;;;;;;
2021/06/07 10:56:21;;;;;;;12.77;10.45;;;17.70;99.90;;;;;;4928372;29;20468;-94
2021/06/07 10:59:30;;;;;;;;;;;;;;;;;;;;;
2021/06/07 11:03:20;;;;;;;;;;;;;;;;;;;;;
2021/06/07 11:06:31;;;;;;;;;;;18.70;99.90;;;;;;4822875;29;20073;-93
2021/06/07 11:09:29;;;;;;;14.05;11.65;;;18.60;99.90;;;;;;4875507;29;19923;-92
2021/06/07 11:12:45;;;;;;;;;;;;;;;;;;;;;
2021/06/07 11:15:45;;;;;;;15.40;12.95;;;18.50;99.90;;;;;;4859652;29;20063;-92
2021/06/07 11:18:26;;;;;;;15.38;13.00;;;18.40;99.90;;;;;;4875318;29;20782;-91
2021/06/07 11:21:18;;;;;;;16.38;12.57;;;18.30;99.90;;;;;;4954838;28;20372;-92
2021/06/07 11:24:33;;;;;;;14.18;12.68;;;18.30;99.90;;;;;;4968230;28;20047;-95
2021/06/07 11:27:44;;;;;;;15.73;12.30;;;18.20;99.90;;;;;;4977720;28;20105;-93
2021/06/07 11:30:35;;;;;;;13.45;11.95;;;18.40;99.90;;;;;;4966633;28;20046;-92
2021/06/07 11:33:11;;;;;;;15.50;13.52;;;18.50;99.90;;;;;;5000667;28;20078;-92
2021/06/07 11:35:48;;;;;;;15.60;12.65;;;18.60;99.90;;;;;;4972803;28;20095;-92
2021/06/07 11:38:45;;;;;;;17.42;13.93;;;18.60;99.90;;;;;;4974852;28;20042;-95
2021/06/07 11:41:52;;;;;;;17.20;12.68;;;18.60;99.90;;;;;;4979761;28;20061;-93
2021/06/07 11:44:51;;;;;;;18.80;13.07;;;18.50;99.90;;;;;;4956449;28;20106;-91
2021/06/07 11:47:49;;;;;;;15.48;12.02;;;18.40;99.90;;;;;;4968996;28;20066;-92
2021/06/07 11:50:46;;;;;;;13.93;12.38;;;18.30;99.90;;;;;;4965772;28;20472;-91
2021/06/07 11:53:22;;;;;;;13.88;12.38;;;18.20;99.90;;;;;;4979250;28;20439;-92
2021/06/07 11:56:25;;;;;;;16.75;12.93;;;18.10;99.90;;;;;;4978262;28;20078;-93
2021/06/07 11:58:53;;;;;;;15.25;13.52;;;18.10;99.90;;;;;;4969506;28;20125;-92
2021/06/07 12:01:22;;;;;;;14.35;12.75;;;18.20;99.90;;;;;;4969073;28;20395;-93
2021/06/07 12:03:55;;;;;;;14.50;12.75;;;18.30;99.90;;;;;;4992663;28;20061;-90
2021/06/07 12:06:31;;;;;;;15.50;12.38;;;18.40;99.90;;;;;;4984309;28;20050;-92
2021/06/07 12:09:08;;;;;;;13.77;12.20;;;18.60;99.90;;;;;;4988522;28;20051;-94
2021/06/07 12:11:37;;;;;;;14.00;12.50;;;18.70;99.90;;;;;;4961205;28;20051;-93
2021/06/07 12:14:04;;;;;;;12.57;11.27;;;18.90;99.90;;;;;;4991088;28;20055;-92
2021/06/07 12:16:47;;;;;;;11.82;10.68;;;19.10;99.90;;;;;;4980797;28;20062;-94
2021/06/07 12:19:15;;;;;;;15.15;11.55;;;19.30;99.90;;;;;;4973349;28;20050;-93
2021/06/07 12:21:44;;;;;;;11.95;10.75;;;19.40;99.90;;;;;;4979785;28;20092;-93
2021/06/07 12:24:18;;;;;;;12.23;10.68;;;19.50;99.90;;;;;;4984670;28;20155;-92
2021/06/07 12:29:54;;;;;;;12.95;11.68;;;19.10;99.90;;;;;;4977781;28;20094;-92
2021/06/07 12:33:14;;;;;;;14.27;12.63;;;18.80;99.90;;;;;;4979331;28;20055;-93
2021/06/07 12:35:57;;;;;;;12.48;10.65;;;18.70;99.90;;;;;;4947009;29;20306;-93
2021/06/07 12:38:26;;;;;;;12.77;11.13;;;18.70;99.90;;;;;;4961420;28;20058;-93
2021/06/07 12:41:01;;;;;;;12.70;11.32;;;18.70;99.90;;;;;;4966018;28;20067;-91
2021/06/07 12:43:45;;;;;;;16.35;12.75;;;18.70;99.90;;;;;;4962989;28;20149;-93
2021/06/07 12:46:26;;;;;;;16.75;12.75;;;18.80;99.90;;;;;;4974722;28;20122;-92
2021/06/07 12:48:53;;;;;;;16.15;12.05;;;18.90;99.90;;;;;;4970871;28;20049;-92
2021/06/07 12:51:47;;;;;;;;;;;;;;;;;;;;;
2021/06/07 12:54:15;;;;;;;14.85;12.85;;;19.00;99.90;;;;;;4983334;28;20053;-94
2021/06/07 12:57:29;;;;;;;12.55;11.25;;;19.20;99.90;;;;;;4987244;28;20728;-92
2021/06/07 13:00:36;;;;;;;12.98;10.98;;;19.50;99.90;;;;;;4987757;28;20138;-94
2021/06/07 13:03:37;;;;;;;12.85;11.35;;;19.80;99.90;;;;;;4988570;28;20075;-92
2021/06/07 13:06:59;;;;;;;14.05;10.65;;;20.10;99.90;;;;;;4979229;28;20096;-90
2021/06/07 13:09:43;;;;;;;15.40;10.65;;;20.40;99.90;;;;;;4993242;28;20055;-91
2021/06/07 13:12:28;;;;;;;11.95;10.00;;;20.30;99.90;;;;;;4988986;28;20050;-92
2021/06/07 13:14:56;;;;;;;13.57;11.30;;;20.10;99.90;;;;;;4981041;28;20165;-94
2021/06/07 13:17:39;;;;;;;;;;;;;;;;;;;;;
2021/06/07 13:20:22;;;;;;;12.30;10.50;;;19.70;99.90;;;;;;4961793;28;20138;-91
2021/06/07 13:23:27;;;;;;;;;;;;;;;;;;;;;
2021/06/07 13:26:22;;;;;;;18.70;12.23;;;19.60;99.90;;;;;;4972177;28;20051;-92
2021/06/07 13:29:42;;;;;;;14.20;12.38;;;19.30;99.90;;;;;;4977800;28;20082;-92
2021/06/07 13:32:15;;;;;;;14.60;13.05;;;19.10;99.90;;;;;;4929680;29;20065;-92
2021/06/07 13:35:21;;;;;;;18.13;14.27;;;19.00;99.90;;;;;;4930739;29;20070;-92
2021/06/07 13:37:53;;;;;;;22.15;15.93;;;18.80;99.90;;;;;;4991003;28;20078;-92
2021/06/07 13:40:29;;;;;;;22.08;15.25;;;18.60;99.90;;;;;;4969494;28;20050;-93
2021/06/07 13:43:15;;;;;;;20.80;17.23;;;18.50;99.90;;;;;;4980403;28;20125;-92
2021/06/07 13:45:45;;;;;;;22.27;17.90;;;18.30;99.90;;;;;;4982893;28;20050;-92
2021/06/07 13:51:35;;;;;;;27.20;19.73;;;18.10;99.90;;;;;;4976051;28;20070;-93
2021/06/07 13:54:22;;;;;;;30.02;20.98;;;18.10;99.90;;;;;;4957392;28;20141;-92
2021/06/07 13:57:08;;;;;;;27.85;19.65;;;18.20;99.90;;;;;;4962900;28;20121;-93
2021/06/07 13:59:38;;;;;;;24.05;20.20;;;18.30;99.90;;;;;;4971921;28;20065;-94
2021/06/07 14:02:15;;;;;;;26.58;19.40;;;18.30;99.90;;;;;;4981353;28;20077;-92